Strona główna
METAR-TAF:

METAR-TAF

Lotnisko :

Plymouth Municipal Airport

Plymouth, Massachusetts, Stany Zjednoczone

Szerokość geograficzna: 41-54-31N, Długość geograficzna: 070-43-41W, wysokość: 45 m

Aktualna obserwacja pogody

Raport powstał 1 godzina i 7 minut temu, godzina 05:52 UTC
Cisza
Temperatura -7°C
Wilgotność 86%
Ciśnienie 1029 hPa
Widzialność: 16.1 km
bezchmurnie

METAR: KPYM 230552Z AUTO 00000KT 10SM CLR M07/M09 A3040 RMK AO2 SLP296 I1000 I6000 T10721089 11033 21072 58007

czas: 01:59 (06:59 UTC)


TAF: brakujący

Obserwacja i prognoza pogody dla ponad 4000 lotnisk (raport METAR i TAF).

Dostępne stacje oznaczono żółtymi i czerwonymi punktami na mapie.

Najedź kursorem aby zobaczyć nazwę stacji.

Kliknij aby zobaczyć obserwacje i prognozy pogody.

Aby zmienić mapę: kliknij na zielony przycisk z czarnym krzyżykiem, aby powiększyć; na zielony przycisk z myślnikiem, aby pomniejszyć; na zielone strzałki, aby przejść do map sąsiednich.


METAR-TAF: